Little Mackinaw, Illinois
Current Conditions -  °F | °C
As of 7:35 PM on Thursday 27 Nov 2014 (Local Time) from KAAA Reporting Station
Clear Clear  
Wind Chill: 15°   Ceiling: Unl
Heat Index: 15°   Visibility: 10mi
Dew Point:   Wind: 3mph
Humidity: 69%   Direction: 300°WNW
Pressure: 30.48"   Gusts: NA
Location:  40.4411°N, 89.3259°W
Report Text: KAAA 280135Z AUTO 30003KT 10SM CLR M09/M14 A3048 RMK AO2 T10921140
Loading
Personal Weather Stations






























Interactive Weather Map New forecast layout! Learn more

10-Day Weather Forecast

Advertisements
Track Severe Weather on mobile